sensor_id;sensor_type;location;lat;lon;timestamp;P1;durP1;ratioP1;P2;durP2;ratioP2
15408;SDS011;7803;48.130;13.788;2023-02-28T00:00:20;4.95;;;4.55;;
15408;SDS011;7803;48.130;13.788;2023-02-28T00:03:23;4.80;;;4.40;;
15408;SDS011;7803;48.130;13.788;2023-02-28T00:06:26;5.20;;;4.70;;
15408;SDS011;7803;48.130;13.788;2023-02-28T00:09:28;5.38;;;4.70;;
15408;SDS011;7803;48.130;13.788;2023-02-28T00:12:31;4.78;;;4.38;;
15408;SDS011;7803;48.130;13.788;2023-02-28T00:15:33;5.03;;;4.53;;
15408;SDS011;7803;48.130;13.788;2023-02-28T00:18:35;5.22;;;4.72;;
15408;SDS011;7803;48.130;13.788;2023-02-28T00:21:39;4.78;;;4.38;;
15408;SDS011;7803;48.130;13.788;2023-02-28T00:24:43;5.43;;;4.93;;
15408;SDS011;7803;48.130;13.788;2023-02-28T00:27:45;5.75;;;4.65;;
15408;SDS011;7803;48.130;13.788;2023-02-28T00:30:48;4.63;;;4.22;;
15408;SDS011;7803;48.130;13.788;2023-02-28T00:33:50;5.07;;;4.57;;
15408;SDS011;7803;48.130;13.788;2023-02-28T00:36:54;4.53;;;4.13;;
15408;SDS011;7803;48.130;13.788;2023-02-28T00:39:56;4.68;;;4.28;;
15408;SDS011;7803;48.130;13.788;2023-02-28T00:42:58;5.30;;;4.80;;
15408;SDS011;7803;48.130;13.788;2023-02-28T00:46:00;4.95;;;4.55;;
15408;SDS011;7803;48.130;13.788;2023-02-28T00:49:03;4.47;;;4.07;;
15408;SDS011;7803;48.130;13.788;2023-02-28T00:52:06;4.55;;;4.15;;
15408;SDS011;7803;48.130;13.788;2023-02-28T00:55:08;4.43;;;4.03;;
15408;SDS011;7803;48.130;13.788;2023-02-28T00:58:10;5.10;;;4.60;;
15408;SDS011;7803;48.130;13.788;2023-02-28T01:01:13;4.72;;;4.32;;
15408;SDS011;7803;48.130;13.788;2023-02-28T01:04:15;4.35;;;3.83;;
15408;SDS011;7803;48.130;13.788;2023-02-28T01:07:18;4.55;;;4.07;;
15408;SDS011;7803;48.130;13.788;2023-02-28T01:10:21;5.60;;;4.40;;
15408;SDS011;7803;48.130;13.788;2023-02-28T01:13:23;4.55;;;4.10;;
15408;SDS011;7803;48.130;13.788;2023-02-28T01:16:25;4.88;;;4.38;;
15408;SDS011;7803;48.130;13.788;2023-02-28T01:19:28;4.90;;;4.05;;
15408;SDS011;7803;48.130;13.788;2023-02-28T01:22:31;4.38;;;4.00;;
15408;SDS011;7803;48.130;13.788;2023-02-28T01:25:35;4.55;;;4.15;;
15408;SDS011;7803;48.130;13.788;2023-02-28T01:28:37;5.13;;;4.63;;
15408;SDS011;7803;48.130;13.788;2023-02-28T01:31:39;5.00;;;4.50;;
15408;SDS011;7803;48.130;13.788;2023-02-28T01:34:41;4.93;;;4.40;;
15408;SDS011;7803;48.130;13.788;2023-02-28T01:37:45;5.03;;;4.43;;
15408;SDS011;7803;48.130;13.788;2023-02-28T01:40:47;5.50;;;4.72;;
15408;SDS011;7803;48.130;13.788;2023-02-28T01:43:53;5.30;;;4.80;;
15408;SDS011;7803;48.130;13.788;2023-02-28T01:46:57;5.28;;;4.78;;
15408;SDS011;7803;48.130;13.788;2023-02-28T01:50:01;5.45;;;4.95;;
15408;SDS011;7803;48.130;13.788;2023-02-28T01:53:08;5.75;;;5.20;;
15408;SDS011;7803;48.130;13.788;2023-02-28T01:56:16;5.32;;;4.82;;
15408;SDS011;7803;48.130;13.788;2023-02-28T01:59:25;5.53;;;5.03;;
15408;SDS011;7803;48.130;13.788;2023-02-28T02:02:31;6.00;;;5.43;;
15408;SDS011;7803;48.130;13.788;2023-02-28T02:05:33;5.63;;;5.13;;
15408;SDS011;7803;48.130;13.788;2023-02-28T02:08:39;6.28;;;5.68;;
15408;SDS011;7803;48.130;13.788;2023-02-28T02:11:42;6.57;;;5.95;;
15408;SDS011;7803;48.130;13.788;2023-02-28T02:14:49;6.50;;;5.90;;
15408;SDS011;7803;48.130;13.788;2023-02-28T02:18:03;7.10;;;6.38;;
15408;SDS011;7803;48.130;13.788;2023-02-28T02:21:31;7.70;;;6.22;;
15408;SDS011;7803;48.130;13.788;2023-02-28T02:25:01;7.13;;;6.43;;
15408;SDS011;7803;48.130;13.788;2023-02-28T02:28:18;9.80;;;6.97;;
15408;SDS011;7803;48.130;13.788;2023-02-28T02:35:18;6.80;;;6.20;;
15408;SDS011;7803;48.130;13.788;2023-02-28T02:38:30;7.50;;;6.80;;
15408;SDS011;7803;48.130;13.788;2023-02-28T02:41:36;7.53;;;6.40;;
15408;SDS011;7803;48.130;13.788;2023-02-28T02:44:43;7.32;;;6.63;;
15408;SDS011;7803;48.130;13.788;2023-02-28T02:47:51;7.78;;;6.97;;
15408;SDS011;7803;48.130;13.788;2023-02-28T02:50:56;8.10;;;7.30;;
15408;SDS011;7803;48.130;13.788;2023-02-28T02:54:02;8.27;;;7.15;;
15408;SDS011;7803;48.130;13.788;2023-02-28T02:57:11;8.20;;;7.40;;
15408;SDS011;7803;48.130;13.788;2023-02-28T03:00:16;7.57;;;6.88;;
15408;SDS011;7803;48.130;13.788;2023-02-28T03:03:21;9.32;;;7.63;;
15408;SDS011;7803;48.130;13.788;2023-02-28T03:06:30;8.40;;;7.50;;
15408;SDS011;7803;48.130;13.788;2023-02-28T03:09:33;8.07;;;7.28;;
15408;SDS011;7803;48.130;13.788;2023-02-28T03:12:39;7.95;;;7.15;;
15408;SDS011;7803;48.130;13.788;2023-02-28T03:15:52;8.38;;;7.50;;
15408;SDS011;7803;48.130;13.788;2023-02-28T03:19:17;7.35;;;6.65;;
15408;SDS011;7803;48.130;13.788;2023-02-28T03:22:44;8.05;;;7.20;;
15408;SDS011;7803;48.130;13.788;2023-02-28T03:25:55;8.90;;;7.15;;
15408;SDS011;7803;48.130;13.788;2023-02-28T03:29:02;7.55;;;6.60;;
15408;SDS011;7803;48.130;13.788;2023-02-28T03:32:08;7.57;;;6.88;;
15408;SDS011;7803;48.130;13.788;2023-02-28T03:35:22;7.68;;;6.88;;
15408;SDS011;7803;48.130;13.788;2023-02-28T03:38:29;8.20;;;7.40;;
15408;SDS011;7803;48.130;13.788;2023-02-28T03:41:37;7.90;;;7.10;;
15408;SDS011;7803;48.130;13.788;2023-02-28T03:44:45;8.55;;;7.75;;
15408;SDS011;7803;48.130;13.788;2023-02-28T03:47:52;7.75;;;7.05;;
15408;SDS011;7803;48.130;13.788;2023-02-28T03:50:57;7.43;;;6.72;;
15408;SDS011;7803;48.130;13.788;2023-02-28T03:54:04;8.25;;;7.47;;
15408;SDS011;7803;48.130;13.788;2023-02-28T03:57:11;7.72;;;6.95;;
15408;SDS011;7803;48.130;13.788;2023-02-28T04:00:20;7.47;;;6.75;;
15408;SDS011;7803;48.130;13.788;2023-02-28T04:03:29;7.82;;;7.05;;
15408;SDS011;7803;48.130;13.788;2023-02-28T04:06:33;8.15;;;7.30;;
15408;SDS011;7803;48.130;13.788;2023-02-28T04:09:37;7.80;;;7.00;;
15408;SDS011;7803;48.130;13.788;2023-02-28T04:12:40;7.80;;;7.00;;
15408;SDS011;7803;48.130;13.788;2023-02-28T04:15:42;7.80;;;7.00;;
15408;SDS011;7803;48.130;13.788;2023-02-28T04:18:44;7.70;;;6.90;;
15408;SDS011;7803;48.130;13.788;2023-02-28T04:21:46;7.78;;;6.80;;
15408;SDS011;7803;48.130;13.788;2023-02-28T04:24:51;7.40;;;6.70;;
15408;SDS011;7803;48.130;13.788;2023-02-28T04:27:54;7.22;;;6.53;;
15408;SDS011;7803;48.130;13.788;2023-02-28T04:30:56;7.82;;;6.90;;
15408;SDS011;7803;48.130;13.788;2023-02-28T04:33:59;7.18;;;6.47;;
15408;SDS011;7803;48.130;13.788;2023-02-28T04:37:02;7.35;;;6.50;;
15408;SDS011;7803;48.130;13.788;2023-02-28T04:40:06;7.00;;;6.40;;
15408;SDS011;7803;48.130;13.788;2023-02-28T04:43:09;7.38;;;6.68;;
15408;SDS011;7803;48.130;13.788;2023-02-28T04:46:11;9.68;;;7.10;;
15408;SDS011;7803;48.130;13.788;2023-02-28T04:49:13;7.18;;;6.47;;
15408;SDS011;7803;48.130;13.788;2023-02-28T04:52:15;6.82;;;6.13;;
15408;SDS011;7803;48.130;13.788;2023-02-28T04:55:19;7.20;;;6.50;;
15408;SDS011;7803;48.130;13.788;2023-02-28T04:58:21;6.57;;;5.97;;
15408;SDS011;7803;48.130;13.788;2023-02-28T05:01:25;7.03;;;6.32;;
15408;SDS011;7803;48.130;13.788;2023-02-28T05:04:28;7.10;;;6.40;;
15408;SDS011;7803;48.130;13.788;2023-02-28T05:07:30;6.68;;;5.97;;
15408;SDS011;7803;48.130;13.788;2023-02-28T05:10:33;7.47;;;6.57;;
15408;SDS011;7803;48.130;13.788;2023-02-28T05:13:35;6.40;;;5.80;;
15408;SDS011;7803;48.130;13.788;2023-02-28T05:16:37;6.45;;;5.85;;
15408;SDS011;7803;48.130;13.788;2023-02-28T05:19:40;6.22;;;5.63;;
15408;SDS011;7803;48.130;13.788;2023-02-28T05:22:42;6.78;;;6.07;;
15408;SDS011;7803;48.130;13.788;2023-02-28T05:25:46;6.38;;;5.78;;
15408;SDS011;7803;48.130;13.788;2023-02-28T05:28:48;6.32;;;5.72;;
15408;SDS011;7803;48.130;13.788;2023-02-28T05:31:50;6.47;;;5.88;;
15408;SDS011;7803;48.130;13.788;2023-02-28T05:34:52;5.63;;;5.13;;
15408;SDS011;7803;48.130;13.788;2023-02-28T05:37:54;7.47;;;6.38;;
15408;SDS011;7803;48.130;13.788;2023-02-28T05:40:58;6.40;;;5.65;;
15408;SDS011;7803;48.130;13.788;2023-02-28T05:44:00;6.35;;;5.75;;
15408;SDS011;7803;48.130;13.788;2023-02-28T05:47:02;6.25;;;5.65;;
15408;SDS011;7803;48.130;13.788;2023-02-28T05:50:05;6.70;;;6.10;;
15408;SDS011;7803;48.130;13.788;2023-02-28T05:53:09;6.72;;;5.93;;
15408;SDS011;7803;48.130;13.788;2023-02-28T05:56:12;5.90;;;5.20;;
15408;SDS011;7803;48.130;13.788;2023-02-28T05:59:14;6.82;;;5.80;;
15408;SDS011;7803;48.130;13.788;2023-02-28T06:02:17;6.03;;;5.43;;
15408;SDS011;7803;48.130;13.788;2023-02-28T06:05:19;6.60;;;5.70;;
15408;SDS011;7803;48.130;13.788;2023-02-28T06:08:21;7.10;;;5.82;;
15408;SDS011;7803;48.130;13.788;2023-02-28T06:11:24;5.72;;;5.13;;
15408;SDS011;7803;48.130;13.788;2023-02-28T06:14:27;5.65;;;5.05;;
15408;SDS011;7803;48.130;13.788;2023-02-28T06:17:31;6.15;;;5.55;;
15408;SDS011;7803;48.130;13.788;2023-02-28T06:20:33;5.80;;;4.80;;
15408;SDS011;7803;48.130;13.788;2023-02-28T06:23:36;6.32;;;5.30;;
15408;SDS011;7803;48.130;13.788;2023-02-28T06:26:39;5.78;;;5.18;;
15408;SDS011;7803;48.130;13.788;2023-02-28T06:29:41;7.63;;;5.30;;
15408;SDS011;7803;48.130;13.788;2023-02-28T06:32:43;6.75;;;5.20;;
15408;SDS011;7803;48.130;13.788;2023-02-28T06:35:46;8.15;;;5.60;;
15408;SDS011;7803;48.130;13.788;2023-02-28T06:38:49;6.25;;;4.90;;
15408;SDS011;7803;48.130;13.788;2023-02-28T06:41:57;5.78;;;5.18;;
15408;SDS011;7803;48.130;13.788;2023-02-28T06:44:59;5.75;;;5.13;;
15408;SDS011;7803;48.130;13.788;2023-02-28T06:48:03;5.53;;;4.95;;
15408;SDS011;7803;48.130;13.788;2023-02-28T06:51:06;6.22;;;5.07;;
15408;SDS011;7803;48.130;13.788;2023-02-28T06:54:09;6.65;;;5.20;;
15408;SDS011;7803;48.130;13.788;2023-02-28T06:57:13;5.68;;;5.00;;
15408;SDS011;7803;48.130;13.788;2023-02-28T07:00:15;5.38;;;4.88;;
15408;SDS011;7803;48.130;13.788;2023-02-28T07:03:18;5.78;;;5.18;;
15408;SDS011;7803;48.130;13.788;2023-02-28T07:06:21;5.28;;;4.78;;
15408;SDS011;7803;48.130;13.788;2023-02-28T07:09:24;5.80;;;4.93;;
15408;SDS011;7803;48.130;13.788;2023-02-28T07:12:31;5.63;;;4.78;;
15408;SDS011;7803;48.130;13.788;2023-02-28T07:15:33;6.40;;;5.25;;
15408;SDS011;7803;48.130;13.788;2023-02-28T07:18:35;5.03;;;4.53;;
15408;SDS011;7803;48.130;13.788;2023-02-28T07:21:37;5.55;;;4.80;;
15408;SDS011;7803;48.130;13.788;2023-02-28T07:24:39;5.00;;;4.50;;
15408;SDS011;7803;48.130;13.788;2023-02-28T07:27:43;6.28;;;4.68;;
15408;SDS011;7803;48.130;13.788;2023-02-28T07:30:45;6.78;;;4.53;;
15408;SDS011;7803;48.130;13.788;2023-02-28T07:33:48;5.22;;;4.72;;
15408;SDS011;7803;48.130;13.788;2023-02-28T07:36:52;4.72;;;4.22;;
15408;SDS011;7803;48.130;13.788;2023-02-28T07:39:54;5.07;;;4.57;;
15408;SDS011;7803;48.130;13.788;2023-02-28T07:42:57;5.78;;;4.90;;
15408;SDS011;7803;48.130;13.788;2023-02-28T07:46:04;5.18;;;4.68;;
15408;SDS011;7803;48.130;13.788;2023-02-28T07:49:07;5.07;;;4.55;;
15408;SDS011;7803;48.130;13.788;2023-02-28T07:52:09;4.90;;;4.40;;
15408;SDS011;7803;48.130;13.788;2023-02-28T07:55:11;5.18;;;4.68;;
15408;SDS011;7803;48.130;13.788;2023-02-28T07:58:15;4.93;;;4.43;;
15408;SDS011;7803;48.130;13.788;2023-02-28T08:01:17;5.15;;;4.55;;
15408;SDS011;7803;48.130;13.788;2023-02-28T08:04:19;5.10;;;4.57;;
15408;SDS011;7803;48.130;13.788;2023-02-28T08:07:22;5.03;;;4.53;;
15408;SDS011;7803;48.130;13.788;2023-02-28T08:10:24;4.53;;;4.13;;
15408;SDS011;7803;48.130;13.788;2023-02-28T08:13:28;4.53;;;4.00;;
15408;SDS011;7803;48.130;13.788;2023-02-28T08:16:30;4.40;;;4.00;;
15408;SDS011;7803;48.130;13.788;2023-02-28T08:19:32;4.68;;;4.10;;
15408;SDS011;7803;48.130;13.788;2023-02-28T08:22:35;5.00;;;4.50;;
15408;SDS011;7803;48.130;13.788;2023-02-28T08:25:37;4.53;;;3.90;;
15408;SDS011;7803;48.130;13.788;2023-02-28T08:28:40;5.05;;;4.30;;
15408;SDS011;7803;48.130;13.788;2023-02-28T08:31:42;4.32;;;3.78;;
15408;SDS011;7803;48.130;13.788;2023-02-28T08:34:45;5.10;;;4.60;;
15408;SDS011;7803;48.130;13.788;2023-02-28T08:37:47;4.30;;;3.90;;
15408;SDS011;7803;48.130;13.788;2023-02-28T08:40:50;4.88;;;4.35;;
15408;SDS011;7803;48.130;13.788;2023-02-28T08:43:59;4.60;;;4.10;;
15408;SDS011;7803;48.130;13.788;2023-02-28T08:47:01;4.55;;;4.13;;
15408;SDS011;7803;48.130;13.788;2023-02-28T08:50:04;5.03;;;4.20;;
15408;SDS011;7803;48.130;13.788;2023-02-28T08:53:07;4.90;;;4.38;;
15408;SDS011;7803;48.130;13.788;2023-02-28T08:56:09;6.15;;;4.60;;
15408;SDS011;7803;48.130;13.788;2023-02-28T08:59:14;4.70;;;4.20;;
15408;SDS011;7803;48.130;13.788;2023-02-28T09:02:16;4.75;;;4.10;;
15408;SDS011;7803;48.130;13.788;2023-02-28T09:05:18;4.88;;;4.07;;
15408;SDS011;7803;48.130;13.788;2023-02-28T09:08:20;4.45;;;3.85;;
15408;SDS011;7803;48.130;13.788;2023-02-28T09:11:23;6.32;;;3.95;;
15408;SDS011;7803;48.130;13.788;2023-02-28T09:14:26;4.40;;;4.00;;
15408;SDS011;7803;48.130;13.788;2023-02-28T09:17:28;4.70;;;4.20;;
15408;SDS011;7803;48.130;13.788;2023-02-28T09:20:30;5.07;;;3.97;;
15408;SDS011;7803;48.130;13.788;2023-02-28T09:23:33;3.80;;;3.40;;
15408;SDS011;7803;48.130;13.788;2023-02-28T09:26:38;4.20;;;3.80;;
15408;SDS011;7803;48.130;13.788;2023-02-28T09:29:41;4.43;;;4.00;;
15408;SDS011;7803;48.130;13.788;2023-02-28T09:32:43;4.20;;;3.80;;
15408;SDS011;7803;48.130;13.788;2023-02-28T09:35:57;4.15;;;3.72;;
15408;SDS011;7803;48.130;13.788;2023-02-28T09:39:00;4.05;;;3.65;;
15408;SDS011;7803;48.130;13.788;2023-02-28T09:42:03;4.10;;;3.70;;
15408;SDS011;7803;48.130;13.788;2023-02-28T09:45:14;4.30;;;3.90;;
15408;SDS011;7803;48.130;13.788;2023-02-28T09:48:23;4.30;;;3.83;;
15408;SDS011;7803;48.130;13.788;2023-02-28T09:51:33;4.30;;;3.90;;
15408;SDS011;7803;48.130;13.788;2023-02-28T09:54:40;3.88;;;3.55;;
15408;SDS011;7803;48.130;13.788;2023-02-28T09:57:43;4.80;;;3.80;;
15408;SDS011;7803;48.130;13.788;2023-02-28T10:00:46;5.20;;;4.05;;
15408;SDS011;7803;48.130;13.788;2023-02-28T10:04:00;4.05;;;3.60;;
15408;SDS011;7803;48.130;13.788;2023-02-28T10:07:10;4.18;;;3.78;;
15408;SDS011;7803;48.130;13.788;2023-02-28T10:10:21;4.15;;;3.45;;
15408;SDS011;7803;48.130;13.788;2023-02-28T10:13:32;4.00;;;3.60;;
15408;SDS011;7803;48.130;13.788;2023-02-28T10:16:39;4.20;;;3.25;;
15408;SDS011;7803;48.130;13.788;2023-02-28T10:19:49;3.95;;;3.53;;
15408;SDS011;7803;48.130;13.788;2023-02-28T10:23:02;3.70;;;3.30;;
15408;SDS011;7803;48.130;13.788;2023-02-28T10:26:11;3.95;;;3.55;;
15408;SDS011;7803;48.130;13.788;2023-02-28T10:29:16;4.00;;;3.60;;
15408;SDS011;7803;48.130;13.788;2023-02-28T10:32:20;3.90;;;3.50;;
15408;SDS011;7803;48.130;13.788;2023-02-28T10:35:24;3.75;;;3.45;;
15408;SDS011;7803;48.130;13.788;2023-02-28T10:38:28;3.72;;;3.35;;
15408;SDS011;7803;48.130;13.788;2023-02-28T10:41:34;4.10;;;3.70;;
15408;SDS011;7803;48.130;13.788;2023-02-28T10:44:43;3.70;;;3.40;;
15408;SDS011;7803;48.130;13.788;2023-02-28T10:47:51;3.63;;;3.33;;
15408;SDS011;7803;48.130;13.788;2023-02-28T10:50:56;3.70;;;3.40;;
15408;SDS011;7803;48.130;13.788;2023-02-28T10:53:59;3.90;;;3.40;;
15408;SDS011;7803;48.130;13.788;2023-02-28T10:57:08;3.85;;;3.40;;
15408;SDS011;7803;48.130;13.788;2023-02-28T11:00:18;3.80;;;3.38;;
15408;SDS011;7803;48.130;13.788;2023-02-28T11:03:30;3.53;;;3.22;;
15408;SDS011;7803;48.130;13.788;2023-02-28T11:06:33;3.47;;;3.17;;
15408;SDS011;7803;48.130;13.788;2023-02-28T11:09:37;3.63;;;3.33;;
15408;SDS011;7803;48.130;13.788;2023-02-28T11:12:43;3.60;;;3.15;;
15408;SDS011;7803;48.130;13.788;2023-02-28T11:15:49;3.50;;;3.20;;
15408;SDS011;7803;48.130;13.788;2023-02-28T11:18:55;4.18;;;3.40;;
15408;SDS011;7803;48.130;13.788;2023-02-28T11:22:00;3.88;;;3.45;;
15408;SDS011;7803;48.130;13.788;2023-02-28T11:25:06;3.80;;;3.50;;
15408;SDS011;7803;48.130;13.788;2023-02-28T11:28:23;3.40;;;3.10;;
15408;SDS011;7803;48.130;13.788;2023-02-28T11:31:28;3.42;;;3.13;;
15408;SDS011;7803;48.130;13.788;2023-02-28T11:34:34;3.75;;;3.15;;
15408;SDS011;7803;48.130;13.788;2023-02-28T11:37:38;3.60;;;3.30;;
15408;SDS011;7803;48.130;13.788;2023-02-28T11:40:42;3.40;;;3.10;;
15408;SDS011;7803;48.130;13.788;2023-02-28T11:43:54;3.53;;;3.05;;
15408;SDS011;7803;48.130;13.788;2023-02-28T11:47:04;3.58;;;3.28;;
15408;SDS011;7803;48.130;13.788;2023-02-28T11:50:19;3.95;;;3.30;;
15408;SDS011;7803;48.130;13.788;2023-02-28T11:53:34;3.30;;;3.00;;
15408;SDS011;7803;48.130;13.788;2023-02-28T11:56:51;3.28;;;2.90;;
15408;SDS011;7803;48.130;13.788;2023-02-28T12:00:00;3.65;;;3.35;;
15408;SDS011;7803;48.130;13.788;2023-02-28T12:03:13;3.30;;;3.00;;
15408;SDS011;7803;48.130;13.788;2023-02-28T12:06:23;3.33;;;3.03;;
15408;SDS011;7803;48.130;13.788;2023-02-28T12:09:40;3.40;;;3.10;;
15408;SDS011;7803;48.130;13.788;2023-02-28T12:12:57;3.35;;;3.03;;
15408;SDS011;7803;48.130;13.788;2023-02-28T12:16:12;3.20;;;2.90;;
15408;SDS011;7803;48.130;13.788;2023-02-28T12:19:25;3.25;;;2.95;;
15408;SDS011;7803;48.130;13.788;2023-02-28T12:22:30;3.35;;;3.05;;
15408;SDS011;7803;48.130;13.788;2023-02-28T12:25:38;4.10;;;3.35;;
15408;SDS011;7803;48.130;13.788;2023-02-28T12:28:53;3.28;;;2.97;;
15408;SDS011;7803;48.130;13.788;2023-02-28T12:32:01;3.30;;;3.00;;
15408;SDS011;7803;48.130;13.788;2023-02-28T12:35:11;3.65;;;3.08;;
15408;SDS011;7803;48.130;13.788;2023-02-28T12:38:18;3.53;;;3.20;;
15408;SDS011;7803;48.130;13.788;2023-02-28T12:41:25;3.53;;;3.20;;
15408;SDS011;7803;48.130;13.788;2023-02-28T12:44:34;3.25;;;2.95;;
15408;SDS011;7803;48.130;13.788;2023-02-28T12:47:41;3.15;;;2.85;;
15408;SDS011;7803;48.130;13.788;2023-02-28T12:50:45;3.03;;;2.70;;
15408;SDS011;7803;48.130;13.788;2023-02-28T12:53:52;3.50;;;3.20;;
15408;SDS011;7803;48.130;13.788;2023-02-28T12:57:02;3.70;;;3.00;;
15408;SDS011;7803;48.130;13.788;2023-02-28T13:00:11;2.83;;;2.63;;
15408;SDS011;7803;48.130;13.788;2023-02-28T13:03:27;3.22;;;2.90;;
15408;SDS011;7803;48.130;13.788;2023-02-28T13:06:52;3.30;;;3.00;;
15408;SDS011;7803;48.130;13.788;2023-02-28T13:10:10;3.00;;;2.70;;
15408;SDS011;7803;48.130;13.788;2023-02-28T13:13:18;3.08;;;2.78;;
15408;SDS011;7803;48.130;13.788;2023-02-28T13:16:22;3.25;;;2.70;;
15408;SDS011;7803;48.130;13.788;2023-02-28T13:19:25;3.33;;;2.75;;
15408;SDS011;7803;48.130;13.788;2023-02-28T13:25:51;3.05;;;2.63;;
15408;SDS011;7803;48.130;13.788;2023-02-28T13:28:58;2.95;;;2.70;;
15408;SDS011;7803;48.130;13.788;2023-02-28T13:35:44;3.55;;;2.80;;
15408;SDS011;7803;48.130;13.788;2023-02-28T13:38:46;3.03;;;2.72;;
15408;SDS011;7803;48.130;13.788;2023-02-28T13:41:51;3.15;;;2.72;;
15408;SDS011;7803;48.130;13.788;2023-02-28T13:48:23;2.97;;;2.67;;
15408;SDS011;7803;48.130;13.788;2023-02-28T13:51:35;3.80;;;3.22;;
15408;SDS011;7803;48.130;13.788;2023-02-28T13:54:43;3.05;;;2.75;;
15408;SDS011;7803;48.130;13.788;2023-02-28T13:58:23;2.97;;;2.78;;
15408;SDS011;7803;48.130;13.788;2023-02-28T14:01:47;3.17;;;2.88;;
15408;SDS011;7803;48.130;13.788;2023-02-28T14:05:00;3.03;;;2.72;;
15408;SDS011;7803;48.130;13.788;2023-02-28T14:08:07;2.72;;;2.53;;
15408;SDS011;7803;48.130;13.788;2023-02-28T14:11:24;3.17;;;2.78;;
15408;SDS011;7803;48.130;13.788;2023-02-28T14:17:58;3.17;;;2.88;;
15408;SDS011;7803;48.130;13.788;2023-02-28T14:21:14;3.03;;;2.72;;
15408;SDS011;7803;48.130;13.788;2023-02-28T14:24:29;2.95;;;2.65;;
15408;SDS011;7803;48.130;13.788;2023-02-28T14:27:58;3.30;;;3.00;;
15408;SDS011;7803;48.130;13.788;2023-02-28T14:31:13;2.88;;;2.60;;
15408;SDS011;7803;48.130;13.788;2023-02-28T14:34:31;2.92;;;2.63;;
15408;SDS011;7803;48.130;13.788;2023-02-28T14:37:41;2.58;;;2.38;;
15408;SDS011;7803;48.130;13.788;2023-02-28T14:40:43;2.80;;;2.58;;
15408;SDS011;7803;48.130;13.788;2023-02-28T14:43:50;2.95;;;2.65;;
15408;SDS011;7803;48.130;13.788;2023-02-28T14:46:56;3.08;;;2.80;;
15408;SDS011;7803;48.130;13.788;2023-02-28T14:49:59;4.22;;;3.30;;
15408;SDS011;7803;48.130;13.788;2023-02-28T14:53:02;3.30;;;2.65;;
15408;SDS011;7803;48.130;13.788;2023-02-28T14:56:05;3.85;;;2.95;;
15408;SDS011;7803;48.130;13.788;2023-02-28T14:59:23;3.38;;;2.90;;
15408;SDS011;7803;48.130;13.788;2023-02-28T15:02:31;3.40;;;3.10;;
15408;SDS011;7803;48.130;13.788;2023-02-28T15:05:36;3.05;;;2.70;;
15408;SDS011;7803;48.130;13.788;2023-02-28T15:08:38;3.00;;;2.70;;
15408;SDS011;7803;48.130;13.788;2023-02-28T15:11:40;2.95;;;2.65;;
15408;SDS011;7803;48.130;13.788;2023-02-28T15:14:43;3.22;;;2.92;;
15408;SDS011;7803;48.130;13.788;2023-02-28T15:17:48;2.80;;;2.55;;
15408;SDS011;7803;48.130;13.788;2023-02-28T15:20:53;3.20;;;2.90;;
15408;SDS011;7803;48.130;13.788;2023-02-28T15:23:57;2.80;;;2.60;;
15408;SDS011;7803;48.130;13.788;2023-02-28T15:27:02;2.70;;;2.50;;
15408;SDS011;7803;48.130;13.788;2023-02-28T15:30:08;2.60;;;2.40;;
15408;SDS011;7803;48.130;13.788;2023-02-28T15:33:19;2.70;;;2.50;;
15408;SDS011;7803;48.130;13.788;2023-02-28T15:36:25;3.03;;;2.65;;
15408;SDS011;7803;48.130;13.788;2023-02-28T15:39:29;3.65;;;3.20;;
15408;SDS011;7803;48.130;13.788;2023-02-28T15:42:56;3.10;;;2.80;;
15408;SDS011;7803;48.130;13.788;2023-02-28T15:46:01;3.10;;;2.80;;
15408;SDS011;7803;48.130;13.788;2023-02-28T15:49:13;2.75;;;2.50;;
15408;SDS011;7803;48.130;13.788;2023-02-28T15:52:22;2.88;;;2.58;;
15408;SDS011;7803;48.130;13.788;2023-02-28T15:55:29;3.00;;;2.70;;
15408;SDS011;7803;48.130;13.788;2023-02-28T15:58:32;2.78;;;2.50;;
15408;SDS011;7803;48.130;13.788;2023-02-28T16:01:37;2.70;;;2.50;;
15408;SDS011;7803;48.130;13.788;2023-02-28T16:08:13;2.90;;;2.58;;
15408;SDS011;7803;48.130;13.788;2023-02-28T16:11:16;2.80;;;2.60;;
15408;SDS011;7803;48.130;13.788;2023-02-28T16:14:19;3.00;;;2.75;;
15408;SDS011;7803;48.130;13.788;2023-02-28T16:17:25;3.42;;;2.75;;
15408;SDS011;7803;48.130;13.788;2023-02-28T16:20:29;2.95;;;2.70;;
15408;SDS011;7803;48.130;13.788;2023-02-28T16:23:33;3.03;;;2.72;;
15408;SDS011;7803;48.130;13.788;2023-02-28T16:26:36;3.30;;;3.00;;
15408;SDS011;7803;48.130;13.788;2023-02-28T16:29:39;2.97;;;2.67;;
15408;SDS011;7803;48.130;13.788;2023-02-28T16:32:42;2.88;;;2.58;;
15408;SDS011;7803;48.130;13.788;2023-02-28T16:35:44;2.97;;;2.67;;
15408;SDS011;7803;48.130;13.788;2023-02-28T16:38:48;2.50;;;2.30;;
15408;SDS011;7803;48.130;13.788;2023-02-28T16:41:51;2.63;;;2.42;;
15408;SDS011;7803;48.130;13.788;2023-02-28T16:44:53;2.78;;;2.58;;
15408;SDS011;7803;48.130;13.788;2023-02-28T16:47:58;2.70;;;2.50;;
15408;SDS011;7803;48.130;13.788;2023-02-28T16:51:00;2.63;;;2.42;;
15408;SDS011;7803;48.130;13.788;2023-02-28T16:54:05;3.15;;;2.70;;
15408;SDS011;7803;48.130;13.788;2023-02-28T16:57:12;2.55;;;2.35;;
15408;SDS011;7803;48.130;13.788;2023-02-28T17:00:20;2.88;;;2.53;;
15408;SDS011;7803;48.130;13.788;2023-02-28T17:03:24;2.72;;;2.53;;
15408;SDS011;7803;48.130;13.788;2023-02-28T17:06:28;2.72;;;2.53;;
15408;SDS011;7803;48.130;13.788;2023-02-28T17:09:33;2.90;;;2.63;;
15408;SDS011;7803;48.130;13.788;2023-02-28T17:12:35;3.33;;;2.80;;
15408;SDS011;7803;48.130;13.788;2023-02-28T17:15:37;3.45;;;3.00;;
15408;SDS011;7803;48.130;13.788;2023-02-28T17:18:41;2.90;;;2.70;;
15408;SDS011;7803;48.130;13.788;2023-02-28T17:21:44;2.80;;;2.60;;
15408;SDS011;7803;48.130;13.788;2023-02-28T17:24:50;3.03;;;2.60;;
15408;SDS011;7803;48.130;13.788;2023-02-28T17:27:55;2.80;;;2.60;;
15408;SDS011;7803;48.130;13.788;2023-02-28T17:30:58;2.85;;;2.65;;
15408;SDS011;7803;48.130;13.788;2023-02-28T17:34:00;2.90;;;2.67;;
15408;SDS011;7803;48.130;13.788;2023-02-28T17:37:04;3.00;;;2.70;;
15408;SDS011;7803;48.130;13.788;2023-02-28T17:40:10;3.00;;;2.70;;
15408;SDS011;7803;48.130;13.788;2023-02-28T17:43:17;2.90;;;2.60;;
15408;SDS011;7803;48.130;13.788;2023-02-28T17:46:20;3.40;;;2.97;;
15408;SDS011;7803;48.130;13.788;2023-02-28T17:49:24;3.22;;;2.65;;
15408;SDS011;7803;48.130;13.788;2023-02-28T17:52:26;3.03;;;2.70;;
15408;SDS011;7803;48.130;13.788;2023-02-28T17:55:31;3.20;;;2.90;;
15408;SDS011;7803;48.130;13.788;2023-02-28T17:58:34;3.70;;;3.08;;
15408;SDS011;7803;48.130;13.788;2023-02-28T18:01:37;5.15;;;3.20;;
15408;SDS011;7803;48.130;13.788;2023-02-28T18:04:40;6.45;;;3.13;;
15408;SDS011;7803;48.130;13.788;2023-02-28T18:07:44;3.22;;;2.92;;
15408;SDS011;7803;48.130;13.788;2023-02-28T18:10:48;3.95;;;2.80;;
15408;SDS011;7803;48.130;13.788;2023-02-28T18:13:52;3.33;;;3.00;;
15408;SDS011;7803;48.130;13.788;2023-02-28T18:16:56;5.00;;;3.33;;
15408;SDS011;7803;48.130;13.788;2023-02-28T18:19:58;4.13;;;3.03;;
15408;SDS011;7803;48.130;13.788;2023-02-28T18:23:02;4.68;;;3.17;;
15408;SDS011;7803;48.130;13.788;2023-02-28T18:26:07;4.60;;;3.08;;
15408;SDS011;7803;48.130;13.788;2023-02-28T18:29:12;4.30;;;3.00;;
15408;SDS011;7803;48.130;13.788;2023-02-28T18:32:18;4.03;;;3.10;;
15408;SDS011;7803;48.130;13.788;2023-02-28T18:35:21;4.90;;;2.90;;
15408;SDS011;7803;48.130;13.788;2023-02-28T18:38:35;3.45;;;3.15;;
15408;SDS011;7803;48.130;13.788;2023-02-28T18:41:40;3.35;;;2.80;;
15408;SDS011;7803;48.130;13.788;2023-02-28T18:44:43;3.20;;;2.78;;
15408;SDS011;7803;48.130;13.788;2023-02-28T18:47:47;3.05;;;2.75;;
15408;SDS011;7803;48.130;13.788;2023-02-28T18:50:50;4.22;;;3.17;;
15408;SDS011;7803;48.130;13.788;2023-02-28T18:53:55;3.17;;;2.83;;
15408;SDS011;7803;48.130;13.788;2023-02-28T18:57:01;4.40;;;3.25;;
15408;SDS011;7803;48.130;13.788;2023-02-28T19:00:04;4.22;;;3.05;;